sensor_id;sensor_type;location;lat;lon;timestamp;P1;durP1;ratioP1;P2;durP2;ratioP2
21798;SDS011;24973;47.178;15.316;2023-02-18T00:01:23;6.53;;;1.70;;
21798;SDS011;24973;47.178;15.316;2023-02-18T00:04:13;4.77;;;2.00;;
21798;SDS011;24973;47.178;15.316;2023-02-18T00:07:01;3.07;;;2.13;;
21798;SDS011;24973;47.178;15.316;2023-02-18T00:09:50;3.27;;;2.60;;
21798;SDS011;24973;47.178;15.316;2023-02-18T00:12:39;3.20;;;2.17;;
21798;SDS011;24973;47.178;15.316;2023-02-18T00:15:28;2.23;;;1.90;;
21798;SDS011;24973;47.178;15.316;2023-02-18T00:18:18;3.73;;;2.00;;
21798;SDS011;24973;47.178;15.316;2023-02-18T00:21:07;9.47;;;2.37;;
21798;SDS011;24973;47.178;15.316;2023-02-18T00:23:58;2.33;;;1.77;;
21798;SDS011;24973;47.178;15.316;2023-02-18T00:26:48;1.60;;;1.33;;
21798;SDS011;24973;47.178;15.316;2023-02-18T00:29:38;5.20;;;1.20;;
21798;SDS011;24973;47.178;15.316;2023-02-18T00:32:27;1.37;;;0.90;;
21798;SDS011;24973;47.178;15.316;2023-02-18T00:35:17;1.43;;;1.10;;
21798;SDS011;24973;47.178;15.316;2023-02-18T00:38:06;2.43;;;1.47;;
21798;SDS011;24973;47.178;15.316;2023-02-18T00:40:55;1.47;;;1.03;;
21798;SDS011;24973;47.178;15.316;2023-02-18T00:43:44;2.97;;;1.20;;
21798;SDS011;24973;47.178;15.316;2023-02-18T00:46:34;1.07;;;0.90;;
21798;SDS011;24973;47.178;15.316;2023-02-18T00:49:23;1.57;;;1.17;;
21798;SDS011;24973;47.178;15.316;2023-02-18T00:52:13;1.47;;;1.10;;
21798;SDS011;24973;47.178;15.316;2023-02-18T00:55:05;3.80;;;1.40;;
21798;SDS011;24973;47.178;15.316;2023-02-18T00:57:54;1.97;;;1.30;;
21798;SDS011;24973;47.178;15.316;2023-02-18T01:00:43;3.77;;;1.07;;
21798;SDS011;24973;47.178;15.316;2023-02-18T01:03:33;1.40;;;1.30;;
21798;SDS011;24973;47.178;15.316;2023-02-18T01:06:22;1.83;;;1.27;;
21798;SDS011;24973;47.178;15.316;2023-02-18T01:09:12;1.00;;;0.90;;
21798;SDS011;24973;47.178;15.316;2023-02-18T01:12:01;1.77;;;0.83;;
21798;SDS011;24973;47.178;15.316;2023-02-18T01:14:50;3.13;;;1.30;;
21798;SDS011;24973;47.178;15.316;2023-02-18T01:17:39;5.70;;;1.13;;
21798;SDS011;24973;47.178;15.316;2023-02-18T01:20:28;1.03;;;0.80;;
21798;SDS011;24973;47.178;15.316;2023-02-18T01:23:17;1.37;;;1.03;;
21798;SDS011;24973;47.178;15.316;2023-02-18T01:26:08;3.03;;;1.23;;
21798;SDS011;24973;47.178;15.316;2023-02-18T01:28:57;0.80;;;0.73;;
21798;SDS011;24973;47.178;15.316;2023-02-18T01:31:46;0.67;;;0.67;;
21798;SDS011;24973;47.178;15.316;2023-02-18T01:34:35;2.57;;;1.00;;
21798;SDS011;24973;47.178;15.316;2023-02-18T01:37:24;1.57;;;1.20;;
21798;SDS011;24973;47.178;15.316;2023-02-18T01:40:13;1.37;;;0.50;;
21798;SDS011;24973;47.178;15.316;2023-02-18T01:43:05;1.20;;;0.90;;
21798;SDS011;24973;47.178;15.316;2023-02-18T01:45:58;0.80;;;0.80;;
21798;SDS011;24973;47.178;15.316;2023-02-18T01:48:55;1.03;;;0.80;;
21798;SDS011;24973;47.178;15.316;2023-02-18T01:51:46;1.17;;;0.80;;
21798;SDS011;24973;47.178;15.316;2023-02-18T01:54:39;0.73;;;0.73;;
21798;SDS011;24973;47.178;15.316;2023-02-18T01:57:32;1.70;;;1.00;;
21798;SDS011;24973;47.178;15.316;2023-02-18T02:00:25;1.07;;;0.70;;
21798;SDS011;24973;47.178;15.316;2023-02-18T02:03:14;1.97;;;1.30;;
21798;SDS011;24973;47.178;15.316;2023-02-18T02:06:05;0.93;;;0.77;;
21798;SDS011;24973;47.178;15.316;2023-02-18T02:09:03;0.63;;;0.63;;
21798;SDS011;24973;47.178;15.316;2023-02-18T02:12:11;1.30;;;1.17;;
21798;SDS011;24973;47.178;15.316;2023-02-18T02:15:27;1.27;;;0.87;;
21798;SDS011;24973;47.178;15.316;2023-02-18T02:18:29;0.80;;;0.80;;
21798;SDS011;24973;47.178;15.316;2023-02-18T02:25:12;10.40;;;1.40;;
21798;SDS011;24973;47.178;15.316;2023-02-18T02:35:18;2.27;;;1.70;;
21798;SDS011;24973;47.178;15.316;2023-02-18T02:38:12;1.20;;;1.10;;
21798;SDS011;24973;47.178;15.316;2023-02-18T02:41:09;2.67;;;1.40;;
21798;SDS011;24973;47.178;15.316;2023-02-18T02:44:11;0.97;;;0.80;;
21798;SDS011;24973;47.178;15.316;2023-02-18T02:47:09;1.87;;;1.47;;
21798;SDS011;24973;47.178;15.316;2023-02-18T02:50:07;1.83;;;1.60;;
21798;SDS011;24973;47.178;15.316;2023-02-18T02:53:03;1.30;;;1.17;;
21798;SDS011;24973;47.178;15.316;2023-02-18T02:56:00;1.13;;;1.03;;
21798;SDS011;24973;47.178;15.316;2023-02-18T02:58:51;0.83;;;0.83;;
21798;SDS011;24973;47.178;15.316;2023-02-18T03:01:52;1.03;;;0.93;;
21798;SDS011;24973;47.178;15.316;2023-02-18T03:05:07;1.30;;;1.23;;
21798;SDS011;24973;47.178;15.316;2023-02-18T03:08:10;1.13;;;1.03;;
21798;SDS011;24973;47.178;15.316;2023-02-18T03:11:16;1.07;;;1.07;;
21798;SDS011;24973;47.178;15.316;2023-02-18T03:14:07;1.10;;;0.87;;
21798;SDS011;24973;47.178;15.316;2023-02-18T03:17:01;2.63;;;1.30;;
21798;SDS011;24973;47.178;15.316;2023-02-18T03:19:59;3.60;;;2.00;;
21798;SDS011;24973;47.178;15.316;2023-02-18T03:22:56;1.90;;;1.03;;
21798;SDS011;24973;47.178;15.316;2023-02-18T03:25:48;1.33;;;0.90;;
21798;SDS011;24973;47.178;15.316;2023-02-18T03:28:37;1.90;;;1.70;;
21798;SDS011;24973;47.178;15.316;2023-02-18T03:31:27;1.13;;;0.90;;
21798;SDS011;24973;47.178;15.316;2023-02-18T03:34:21;1.83;;;1.43;;
21798;SDS011;24973;47.178;15.316;2023-02-18T03:37:13;0.90;;;0.87;;
21798;SDS011;24973;47.178;15.316;2023-02-18T03:40:03;1.20;;;1.10;;
21798;SDS011;24973;47.178;15.316;2023-02-18T03:42:56;2.03;;;1.37;;
21798;SDS011;24973;47.178;15.316;2023-02-18T03:45:45;6.10;;;1.10;;
21798;SDS011;24973;47.178;15.316;2023-02-18T03:48:34;1.73;;;1.10;;
21798;SDS011;24973;47.178;15.316;2023-02-18T03:51:23;0.93;;;0.93;;
21798;SDS011;24973;47.178;15.316;2023-02-18T03:54:12;0.80;;;0.80;;
21798;SDS011;24973;47.178;15.316;2023-02-18T03:57:00;1.10;;;1.10;;
21798;SDS011;24973;47.178;15.316;2023-02-18T03:59:51;1.27;;;0.70;;
21798;SDS011;24973;47.178;15.316;2023-02-18T04:02:40;1.37;;;0.93;;
21798;SDS011;24973;47.178;15.316;2023-02-18T04:05:29;1.10;;;1.10;;
21798;SDS011;24973;47.178;15.316;2023-02-18T04:08:17;1.17;;;1.07;;
21798;SDS011;24973;47.178;15.316;2023-02-18T04:11:06;1.13;;;1.03;;
21798;SDS011;24973;47.178;15.316;2023-02-18T04:13:55;1.13;;;1.03;;
21798;SDS011;24973;47.178;15.316;2023-02-18T04:16:45;0.80;;;0.80;;
21798;SDS011;24973;47.178;15.316;2023-02-18T04:19:34;0.67;;;0.67;;
21798;SDS011;24973;47.178;15.316;2023-02-18T04:22:22;0.90;;;0.80;;
21798;SDS011;24973;47.178;15.316;2023-02-18T04:25:11;0.90;;;0.90;;
21798;SDS011;24973;47.178;15.316;2023-02-18T04:28:00;1.33;;;0.90;;
21798;SDS011;24973;47.178;15.316;2023-02-18T04:30:49;1.40;;;1.20;;
21798;SDS011;24973;47.178;15.316;2023-02-18T04:33:39;0.77;;;0.77;;
21798;SDS011;24973;47.178;15.316;2023-02-18T04:36:28;1.30;;;1.07;;
21798;SDS011;24973;47.178;15.316;2023-02-18T04:39:16;0.70;;;0.70;;
21798;SDS011;24973;47.178;15.316;2023-02-18T04:42:05;4.47;;;0.87;;
21798;SDS011;24973;47.178;15.316;2023-02-18T04:44:55;0.40;;;0.40;;
21798;SDS011;24973;47.178;15.316;2023-02-18T04:47:44;2.00;;;0.70;;
21798;SDS011;24973;47.178;15.316;2023-02-18T04:50:34;1.00;;;0.63;;
21798;SDS011;24973;47.178;15.316;2023-02-18T04:53:23;0.60;;;0.60;;
21798;SDS011;24973;47.178;15.316;2023-02-18T04:56:12;1.20;;;0.83;;
21798;SDS011;24973;47.178;15.316;2023-02-18T04:59:01;0.40;;;0.40;;
21798;SDS011;24973;47.178;15.316;2023-02-18T05:01:49;0.57;;;0.40;;
21798;SDS011;24973;47.178;15.316;2023-02-18T05:04:38;0.60;;;0.60;;
21798;SDS011;24973;47.178;15.316;2023-02-18T05:07:28;0.73;;;0.60;;
21798;SDS011;24973;47.178;15.316;2023-02-18T05:10:17;0.93;;;0.60;;
21798;SDS011;24973;47.178;15.316;2023-02-18T05:13:06;0.80;;;0.80;;
21798;SDS011;24973;47.178;15.316;2023-02-18T05:15:55;0.80;;;0.80;;
21798;SDS011;24973;47.178;15.316;2023-02-18T05:18:43;0.70;;;0.70;;
21798;SDS011;24973;47.178;15.316;2023-02-18T05:21:32;1.37;;;0.80;;
21798;SDS011;24973;47.178;15.316;2023-02-18T05:24:22;1.40;;;1.30;;
21798;SDS011;24973;47.178;15.316;2023-02-18T05:27:11;2.33;;;2.13;;
21798;SDS011;24973;47.178;15.316;2023-02-18T05:30:00;2.00;;;1.80;;
21798;SDS011;24973;47.178;15.316;2023-02-18T05:32:49;2.60;;;2.07;;
21798;SDS011;24973;47.178;15.316;2023-02-18T05:35:37;3.00;;;1.43;;
21798;SDS011;24973;47.178;15.316;2023-02-18T05:38:26;1.90;;;1.27;;
21798;SDS011;24973;47.178;15.316;2023-02-18T05:41:17;1.27;;;1.17;;
21798;SDS011;24973;47.178;15.316;2023-02-18T05:44:06;0.83;;;0.80;;
21798;SDS011;24973;47.178;15.316;2023-02-18T05:47:11;0.50;;;0.50;;
21798;SDS011;24973;47.178;15.316;2023-02-18T05:50:00;0.60;;;0.60;;
21798;SDS011;24973;47.178;15.316;2023-02-18T05:52:49;1.37;;;0.87;;
21798;SDS011;24973;47.178;15.316;2023-02-18T05:55:38;0.80;;;0.80;;
21798;SDS011;24973;47.178;15.316;2023-02-18T05:58:28;0.97;;;0.80;;
21798;SDS011;24973;47.178;15.316;2023-02-18T06:01:17;0.67;;;0.67;;
21798;SDS011;24973;47.178;15.316;2023-02-18T06:04:06;3.13;;;1.73;;
21798;SDS011;24973;47.178;15.316;2023-02-18T06:06:55;2.53;;;2.33;;
21798;SDS011;24973;47.178;15.316;2023-02-18T06:09:44;3.20;;;2.37;;
21798;SDS011;24973;47.178;15.316;2023-02-18T06:12:33;2.50;;;1.83;;
21798;SDS011;24973;47.178;15.316;2023-02-18T06:15:23;3.63;;;2.23;;
21798;SDS011;24973;47.178;15.316;2023-02-18T06:18:12;2.73;;;1.70;;
21798;SDS011;24973;47.178;15.316;2023-02-18T06:21:01;2.20;;;1.87;;
21798;SDS011;24973;47.178;15.316;2023-02-18T06:23:50;3.70;;;2.43;;
21798;SDS011;24973;47.178;15.316;2023-02-18T06:26:39;2.40;;;1.47;;
21798;SDS011;24973;47.178;15.316;2023-02-18T06:29:27;2.63;;;1.77;;
21798;SDS011;24973;47.178;15.316;2023-02-18T06:32:18;134.43;;;64.97;;
21798;SDS011;24973;47.178;15.316;2023-02-18T06:35:07;48.00;;;24.77;;
21798;SDS011;24973;47.178;15.316;2023-02-18T06:37:55;58.27;;;30.63;;
21798;SDS011;24973;47.178;15.316;2023-02-18T06:40:46;82.13;;;47.93;;
21798;SDS011;24973;47.178;15.316;2023-02-18T06:43:34;77.07;;;41.27;;
21798;SDS011;24973;47.178;15.316;2023-02-18T06:46:24;106.30;;;55.40;;
21798;SDS011;24973;47.178;15.316;2023-02-18T06:49:14;69.87;;;42.43;;
21798;SDS011;24973;47.178;15.316;2023-02-18T06:52:03;20.57;;;12.73;;
21798;SDS011;24973;47.178;15.316;2023-02-18T06:54:52;3.53;;;2.63;;
21798;SDS011;24973;47.178;15.316;2023-02-18T06:57:41;6.00;;;3.50;;
21798;SDS011;24973;47.178;15.316;2023-02-18T07:00:32;4.03;;;3.27;;
21798;SDS011;24973;47.178;15.316;2023-02-18T07:03:21;4.30;;;3.63;;
21798;SDS011;24973;47.178;15.316;2023-02-18T07:06:12;2.97;;;1.50;;
21798;SDS011;24973;47.178;15.316;2023-02-18T07:09:00;1.80;;;1.47;;
21798;SDS011;24973;47.178;15.316;2023-02-18T07:11:49;1.93;;;1.83;;
21798;SDS011;24973;47.178;15.316;2023-02-18T07:14:38;4.67;;;1.30;;
21798;SDS011;24973;47.178;15.316;2023-02-18T07:17:28;2.27;;;2.00;;
21798;SDS011;24973;47.178;15.316;2023-02-18T07:20:17;2.30;;;2.10;;
21798;SDS011;24973;47.178;15.316;2023-02-18T07:23:07;2.03;;;1.83;;
21798;SDS011;24973;47.178;15.316;2023-02-18T07:26:03;2.20;;;2.10;;
21798;SDS011;24973;47.178;15.316;2023-02-18T07:28:54;3.83;;;2.50;;
21798;SDS011;24973;47.178;15.316;2023-02-18T07:31:43;3.70;;;2.17;;
21798;SDS011;24973;47.178;15.316;2023-02-18T07:34:31;4.87;;;2.20;;
21798;SDS011;24973;47.178;15.316;2023-02-18T07:37:20;4.80;;;2.77;;
21798;SDS011;24973;47.178;15.316;2023-02-18T07:40:11;3.23;;;2.63;;
21798;SDS011;24973;47.178;15.316;2023-02-18T07:43:02;7.10;;;3.00;;
21798;SDS011;24973;47.178;15.316;2023-02-18T07:45:51;2.50;;;2.40;;
21798;SDS011;24973;47.178;15.316;2023-02-18T07:48:40;3.00;;;2.60;;
21798;SDS011;24973;47.178;15.316;2023-02-18T07:51:29;4.33;;;3.20;;
21798;SDS011;24973;47.178;15.316;2023-02-18T07:54:19;2.73;;;2.43;;
21798;SDS011;24973;47.178;15.316;2023-02-18T07:57:09;4.13;;;2.70;;
21798;SDS011;24973;47.178;15.316;2023-02-18T07:59:58;5.97;;;3.93;;
21798;SDS011;24973;47.178;15.316;2023-02-18T08:02:47;4.53;;;3.27;;
21798;SDS011;24973;47.178;15.316;2023-02-18T08:05:35;5.63;;;3.03;;
21798;SDS011;24973;47.178;15.316;2023-02-18T08:08:25;4.27;;;3.17;;
21798;SDS011;24973;47.178;15.316;2023-02-18T08:11:16;3.17;;;2.87;;
21798;SDS011;24973;47.178;15.316;2023-02-18T08:14:07;3.53;;;2.77;;
21798;SDS011;24973;47.178;15.316;2023-02-18T08:16:55;3.60;;;3.00;;
21798;SDS011;24973;47.178;15.316;2023-02-18T08:19:44;3.70;;;2.93;;
21798;SDS011;24973;47.178;15.316;2023-02-18T08:22:33;4.37;;;2.90;;
21798;SDS011;24973;47.178;15.316;2023-02-18T08:25:23;3.37;;;2.60;;
21798;SDS011;24973;47.178;15.316;2023-02-18T08:28:15;4.90;;;3.00;;
21798;SDS011;24973;47.178;15.316;2023-02-18T08:31:06;3.43;;;2.73;;
21798;SDS011;24973;47.178;15.316;2023-02-18T08:34:00;4.67;;;2.63;;
21798;SDS011;24973;47.178;15.316;2023-02-18T08:36:50;2.50;;;2.30;;
21798;SDS011;24973;47.178;15.316;2023-02-18T08:39:39;4.93;;;3.07;;
21798;SDS011;24973;47.178;15.316;2023-02-18T08:42:28;4.83;;;2.80;;
21798;SDS011;24973;47.178;15.316;2023-02-18T08:45:17;4.70;;;3.63;;
21798;SDS011;24973;47.178;15.316;2023-02-18T08:48:07;3.70;;;3.23;;
21798;SDS011;24973;47.178;15.316;2023-02-18T08:50:58;3.67;;;2.63;;
21798;SDS011;24973;47.178;15.316;2023-02-18T08:53:47;4.13;;;2.50;;
21798;SDS011;24973;47.178;15.316;2023-02-18T08:56:36;4.60;;;3.07;;
21798;SDS011;24973;47.178;15.316;2023-02-18T08:59:25;6.47;;;3.30;;
21798;SDS011;24973;47.178;15.316;2023-02-18T09:02:14;3.33;;;2.77;;
21798;SDS011;24973;47.178;15.316;2023-02-18T09:05:05;5.90;;;3.40;;
21798;SDS011;24973;47.178;15.316;2023-02-18T09:07:55;5.90;;;4.13;;
21798;SDS011;24973;47.178;15.316;2023-02-18T09:10:44;7.53;;;5.00;;
21798;SDS011;24973;47.178;15.316;2023-02-18T09:13:32;7.83;;;5.20;;
21798;SDS011;24973;47.178;15.316;2023-02-18T09:16:21;19.63;;;14.07;;
21798;SDS011;24973;47.178;15.316;2023-02-18T09:19:11;6.77;;;6.07;;
21798;SDS011;24973;47.178;15.316;2023-02-18T09:22:02;5.93;;;4.77;;
21798;SDS011;24973;47.178;15.316;2023-02-18T09:24:50;6.60;;;4.93;;
21798;SDS011;24973;47.178;15.316;2023-02-18T09:27:39;6.57;;;4.83;;
21798;SDS011;24973;47.178;15.316;2023-02-18T09:30:28;8.67;;;5.77;;
21798;SDS011;24973;47.178;15.316;2023-02-18T09:33:17;9.57;;;4.70;;
21798;SDS011;24973;47.178;15.316;2023-02-18T09:36:06;4.57;;;3.93;;
21798;SDS011;24973;47.178;15.316;2023-02-18T09:38:57;6.27;;;4.40;;
21798;SDS011;24973;47.178;15.316;2023-02-18T09:41:46;9.50;;;3.90;;
21798;SDS011;24973;47.178;15.316;2023-02-18T09:44:37;9.97;;;3.80;;
21798;SDS011;24973;47.178;15.316;2023-02-18T09:47:31;8.37;;;4.83;;
21798;SDS011;24973;47.178;15.316;2023-02-18T09:50:23;9.50;;;3.87;;
21798;SDS011;24973;47.178;15.316;2023-02-18T09:53:15;4.63;;;2.87;;
21798;SDS011;24973;47.178;15.316;2023-02-18T09:56:08;4.20;;;2.10;;
21798;SDS011;24973;47.178;15.316;2023-02-18T09:59:02;3.73;;;2.30;;
21798;SDS011;24973;47.178;15.316;2023-02-18T10:01:55;2.67;;;2.10;;
21798;SDS011;24973;47.178;15.316;2023-02-18T10:04:47;2.40;;;2.03;;
21798;SDS011;24973;47.178;15.316;2023-02-18T10:07:38;3.90;;;2.47;;
21798;SDS011;24973;47.178;15.316;2023-02-18T10:10:31;5.57;;;3.10;;
21798;SDS011;24973;47.178;15.316;2023-02-18T10:13:29;5.67;;;2.47;;
21798;SDS011;24973;47.178;15.316;2023-02-18T10:16:19;5.80;;;2.20;;
21798;SDS011;24973;47.178;15.316;2023-02-18T10:19:14;10.07;;;3.00;;
21798;SDS011;24973;47.178;15.316;2023-02-18T10:22:09;5.30;;;2.97;;
21798;SDS011;24973;47.178;15.316;2023-02-18T10:25:01;7.10;;;3.37;;
21798;SDS011;24973;47.178;15.316;2023-02-18T10:27:54;8.07;;;4.00;;
21798;SDS011;24973;47.178;15.316;2023-02-18T10:30:48;5.70;;;4.63;;
21798;SDS011;24973;47.178;15.316;2023-02-18T10:33:44;4.00;;;2.27;;
21798;SDS011;24973;47.178;15.316;2023-02-18T10:36:41;3.80;;;2.90;;
21798;SDS011;24973;47.178;15.316;2023-02-18T10:39:36;5.17;;;3.53;;
21798;SDS011;24973;47.178;15.316;2023-02-18T10:42:37;5.90;;;3.60;;
21798;SDS011;24973;47.178;15.316;2023-02-18T10:45:37;4.17;;;2.27;;
21798;SDS011;24973;47.178;15.316;2023-02-18T10:48:40;3.00;;;2.20;;
21798;SDS011;24973;47.178;15.316;2023-02-18T10:51:46;2.37;;;1.40;;
21798;SDS011;24973;47.178;15.316;2023-02-18T10:54:47;4.57;;;1.57;;
21798;SDS011;24973;47.178;15.316;2023-02-18T10:57:44;1.73;;;1.10;;
21798;SDS011;24973;47.178;15.316;2023-02-18T11:00:35;5.83;;;1.67;;
21798;SDS011;24973;47.178;15.316;2023-02-18T11:03:37;2.63;;;1.27;;
21798;SDS011;24973;47.178;15.316;2023-02-18T11:06:30;2.30;;;1.23;;
21798;SDS011;24973;47.178;15.316;2023-02-18T11:09:31;3.60;;;1.43;;
21798;SDS011;24973;47.178;15.316;2023-02-18T11:12:28;1.43;;;1.33;;
21798;SDS011;24973;47.178;15.316;2023-02-18T11:15:22;1.63;;;1.20;;
21798;SDS011;24973;47.178;15.316;2023-02-18T11:18:13;2.07;;;1.37;;
21798;SDS011;24973;47.178;15.316;2023-02-18T11:21:28;0.63;;;0.60;;
21798;SDS011;24973;47.178;15.316;2023-02-18T11:24:21;1.80;;;0.90;;
21798;SDS011;24973;47.178;15.316;2023-02-18T11:27:12;1.77;;;1.20;;
21798;SDS011;24973;47.178;15.316;2023-02-18T11:30:15;4.83;;;2.40;;
21798;SDS011;24973;47.178;15.316;2023-02-18T11:33:08;1.17;;;0.73;;
21798;SDS011;24973;47.178;15.316;2023-02-18T11:36:09;2.97;;;1.00;;
21798;SDS011;24973;47.178;15.316;2023-02-18T11:39:13;2.03;;;1.70;;
21798;SDS011;24973;47.178;15.316;2023-02-18T11:42:10;4.30;;;2.37;;
21798;SDS011;24973;47.178;15.316;2023-02-18T11:45:01;5.50;;;3.13;;
21798;SDS011;24973;47.178;15.316;2023-02-18T11:47:53;2.40;;;1.97;;
21798;SDS011;24973;47.178;15.316;2023-02-18T11:50:49;2.73;;;1.47;;
21798;SDS011;24973;47.178;15.316;2023-02-18T11:53:50;2.10;;;1.50;;
21798;SDS011;24973;47.178;15.316;2023-02-18T11:56:53;4.43;;;1.50;;
21798;SDS011;24973;47.178;15.316;2023-02-18T11:59:43;5.20;;;2.33;;
21798;SDS011;24973;47.178;15.316;2023-02-18T12:02:32;1.90;;;1.50;;
21798;SDS011;24973;47.178;15.316;2023-02-18T12:05:23;5.50;;;1.70;;
21798;SDS011;24973;47.178;15.316;2023-02-18T12:08:16;2.00;;;1.40;;
21798;SDS011;24973;47.178;15.316;2023-02-18T12:11:08;3.63;;;1.20;;
21798;SDS011;24973;47.178;15.316;2023-02-18T12:14:01;2.17;;;1.00;;
21798;SDS011;24973;47.178;15.316;2023-02-18T12:16:56;3.67;;;1.20;;
21798;SDS011;24973;47.178;15.316;2023-02-18T12:20:26;3.73;;;1.50;;
21798;SDS011;24973;47.178;15.316;2023-02-18T12:23:44;2.73;;;1.57;;
21798;SDS011;24973;47.178;15.316;2023-02-18T12:26:47;2.33;;;1.53;;
21798;SDS011;24973;47.178;15.316;2023-02-18T12:29:53;1.73;;;1.37;;
21798;SDS011;24973;47.178;15.316;2023-02-18T12:32:58;4.63;;;2.10;;
21798;SDS011;24973;47.178;15.316;2023-02-18T12:35:58;2.70;;;1.60;;
21798;SDS011;24973;47.178;15.316;2023-02-18T12:39:01;2.00;;;1.37;;
21798;SDS011;24973;47.178;15.316;2023-02-18T12:42:02;2.13;;;1.70;;
21798;SDS011;24973;47.178;15.316;2023-02-18T12:45:19;3.20;;;2.70;;
21798;SDS011;24973;47.178;15.316;2023-02-18T12:48:36;3.05;;;2.10;;
21798;SDS011;24973;47.178;15.316;2023-02-18T12:51:45;3.78;;;2.03;;
21798;SDS011;24973;47.178;15.316;2023-02-18T12:58:17;5.13;;;2.85;;
21798;SDS011;24973;47.178;15.316;2023-02-18T13:01:30;5.78;;;2.42;;
21798;SDS011;24973;47.178;15.316;2023-02-18T13:04:37;4.40;;;3.13;;
21798;SDS011;24973;47.178;15.316;2023-02-18T13:07:43;4.22;;;2.58;;
21798;SDS011;24973;47.178;15.316;2023-02-18T13:10:46;4.50;;;3.40;;
21798;SDS011;24973;47.178;15.316;2023-02-18T13:13:51;4.72;;;3.35;;
21798;SDS011;24973;47.178;15.316;2023-02-18T13:16:50;5.53;;;3.45;;
21798;SDS011;24973;47.178;15.316;2023-02-18T13:19:44;4.88;;;3.35;;
21798;SDS011;24973;47.178;15.316;2023-02-18T13:22:38;4.75;;;3.38;;
21798;SDS011;24973;47.178;15.316;2023-02-18T13:25:27;8.18;;;3.00;;
21798;SDS011;24973;47.178;15.316;2023-02-18T13:28:20;4.03;;;2.80;;
21798;SDS011;24973;47.178;15.316;2023-02-18T13:31:21;5.00;;;3.25;;
21798;SDS011;24973;47.178;15.316;2023-02-18T13:34:24;5.85;;;3.35;;
21798;SDS011;24973;47.178;15.316;2023-02-18T13:37:19;8.32;;;4.78;;
21798;SDS011;24973;47.178;15.316;2023-02-18T13:40:20;8.40;;;5.07;;
21798;SDS011;24973;47.178;15.316;2023-02-18T13:43:18;9.70;;;6.63;;
21798;SDS011;24973;47.178;15.316;2023-02-18T13:46:16;6.38;;;4.75;;
21798;SDS011;24973;47.178;15.316;2023-02-18T13:49:09;7.65;;;6.50;;
21798;SDS011;24973;47.178;15.316;2023-02-18T13:52:01;7.55;;;4.45;;
21798;SDS011;24973;47.178;15.316;2023-02-18T13:54:51;5.97;;;4.05;;
21798;SDS011;24973;47.178;15.316;2023-02-18T13:57:44;6.85;;;4.20;;
21798;SDS011;24973;47.178;15.316;2023-02-18T14:00:40;5.25;;;4.20;;
21798;SDS011;24973;47.178;15.316;2023-02-18T14:03:49;7.65;;;6.13;;
21798;SDS011;24973;47.178;15.316;2023-02-18T14:10:23;4.80;;;4.03;;
21798;SDS011;24973;47.178;15.316;2023-02-18T14:13:23;9.23;;;6.05;;
21798;SDS011;24973;47.178;15.316;2023-02-18T14:16:26;9.50;;;6.43;;
21798;SDS011;24973;47.178;15.316;2023-02-18T14:26:47;8.20;;;5.63;;
21798;SDS011;24973;47.178;15.316;2023-02-18T14:29:44;8.27;;;5.78;;
21798;SDS011;24973;47.178;15.316;2023-02-18T14:32:33;6.22;;;5.63;;
21798;SDS011;24973;47.178;15.316;2023-02-18T14:35:24;7.20;;;5.75;;
21798;SDS011;24973;47.178;15.316;2023-02-18T14:38:30;11.45;;;6.88;;
21798;SDS011;24973;47.178;15.316;2023-02-18T14:41:37;9.45;;;5.70;;
21798;SDS011;24973;47.178;15.316;2023-02-18T14:44:41;10.75;;;5.95;;
21798;SDS011;24973;47.178;15.316;2023-02-18T14:47:55;9.40;;;6.45;;
21798;SDS011;24973;47.178;15.316;2023-02-18T14:51:09;8.68;;;5.72;;
21798;SDS011;24973;47.178;15.316;2023-02-18T14:54:03;8.88;;;6.13;;
21798;SDS011;24973;47.178;15.316;2023-02-18T14:56:56;7.72;;;5.78;;
21798;SDS011;24973;47.178;15.316;2023-02-18T14:59:48;8.43;;;5.90;;
21798;SDS011;24973;47.178;15.316;2023-02-18T15:02:47;6.82;;;4.90;;
21798;SDS011;24973;47.178;15.316;2023-02-18T15:05:38;6.72;;;4.90;;
21798;SDS011;24973;47.178;15.316;2023-02-18T15:08:27;6.22;;;4.90;;
21798;SDS011;24973;47.178;15.316;2023-02-18T15:11:29;9.75;;;4.68;;
21798;SDS011;24973;47.178;15.316;2023-02-18T15:14:26;7.32;;;4.78;;
21798;SDS011;24973;47.178;15.316;2023-02-18T15:17:19;7.43;;;4.70;;
21798;SDS011;24973;47.178;15.316;2023-02-18T15:20:12;8.45;;;5.10;;
21798;SDS011;24973;47.178;15.316;2023-02-18T15:23:02;7.28;;;5.10;;
21798;SDS011;24973;47.178;15.316;2023-02-18T15:25:51;5.97;;;4.95;;
21798;SDS011;24973;47.178;15.316;2023-02-18T15:28:42;9.45;;;4.57;;
21798;SDS011;24973;47.178;15.316;2023-02-18T15:31:42;8.18;;;5.20;;
21798;SDS011;24973;47.178;15.316;2023-02-18T15:34:33;6.70;;;4.75;;
21798;SDS011;24973;47.178;15.316;2023-02-18T15:37:24;6.82;;;5.20;;
21798;SDS011;24973;47.178;15.316;2023-02-18T15:40:13;5.25;;;4.45;;
21798;SDS011;24973;47.178;15.316;2023-02-18T15:43:03;8.75;;;5.60;;
21798;SDS011;24973;47.178;15.316;2023-02-18T15:45:53;9.70;;;5.67;;
21798;SDS011;24973;47.178;15.316;2023-02-18T15:48:46;20.87;;;12.23;;
21798;SDS011;24973;47.178;15.316;2023-02-18T15:51:37;13.60;;;7.80;;
21798;SDS011;24973;47.178;15.316;2023-02-18T15:54:29;6.37;;;4.63;;
21798;SDS011;24973;47.178;15.316;2023-02-18T15:57:19;8.47;;;4.00;;
21798;SDS011;24973;47.178;15.316;2023-02-18T16:00:15;6.43;;;4.13;;
21798;SDS011;24973;47.178;15.316;2023-02-18T16:03:10;18.27;;;13.20;;
21798;SDS011;24973;47.178;15.316;2023-02-18T16:06:11;6.43;;;3.50;;
21798;SDS011;24973;47.178;15.316;2023-02-18T16:09:10;10.23;;;4.77;;
21798;SDS011;24973;47.178;15.316;2023-02-18T16:12:03;6.60;;;5.63;;
21798;SDS011;24973;47.178;15.316;2023-02-18T16:15:06;9.03;;;6.00;;
21798;SDS011;24973;47.178;15.316;2023-02-18T16:18:03;7.10;;;4.73;;
21798;SDS011;24973;47.178;15.316;2023-02-18T16:20:53;5.17;;;4.03;;
21798;SDS011;24973;47.178;15.316;2023-02-18T16:23:51;7.70;;;4.10;;
21798;SDS011;24973;47.178;15.316;2023-02-18T16:26:43;5.53;;;3.47;;
21798;SDS011;24973;47.178;15.316;2023-02-18T16:29:34;5.93;;;3.17;;
21798;SDS011;24973;47.178;15.316;2023-02-18T16:32:27;4.57;;;3.93;;
21798;SDS011;24973;47.178;15.316;2023-02-18T16:35:17;5.73;;;3.80;;
21798;SDS011;24973;47.178;15.316;2023-02-18T16:38:06;4.07;;;3.63;;
21798;SDS011;24973;47.178;15.316;2023-02-18T16:40:56;6.47;;;3.70;;
21798;SDS011;24973;47.178;15.316;2023-02-18T16:43:45;11.23;;;3.93;;
21798;SDS011;24973;47.178;15.316;2023-02-18T16:46:33;4.83;;;4.00;;
21798;SDS011;24973;47.178;15.316;2023-02-18T16:53:15;4.80;;;4.00;;
21798;SDS011;24973;47.178;15.316;2023-02-18T16:56:05;5.17;;;3.93;;
21798;SDS011;24973;47.178;15.316;2023-02-18T16:59:02;6.10;;;3.97;;
21798;SDS011;24973;47.178;15.316;2023-02-18T17:01:51;7.57;;;3.87;;
21798;SDS011;24973;47.178;15.316;2023-02-18T17:04:39;10.93;;;4.70;;
21798;SDS011;24973;47.178;15.316;2023-02-18T17:07:28;7.90;;;4.83;;
21798;SDS011;24973;47.178;15.316;2023-02-18T17:10:18;7.87;;;4.90;;
21798;SDS011;24973;47.178;15.316;2023-02-18T17:13:10;6.93;;;4.60;;
21798;SDS011;24973;47.178;15.316;2023-02-18T17:16:02;9.50;;;5.17;;
21798;SDS011;24973;47.178;15.316;2023-02-18T17:18:51;10.20;;;5.20;;
21798;SDS011;24973;47.178;15.316;2023-02-18T17:21:40;5.63;;;4.30;;
21798;SDS011;24973;47.178;15.316;2023-02-18T17:24:29;7.30;;;4.70;;
21798;SDS011;24973;47.178;15.316;2023-02-18T17:27:18;6.27;;;4.57;;
21798;SDS011;24973;47.178;15.316;2023-02-18T17:30:09;9.47;;;4.53;;
21798;SDS011;24973;47.178;15.316;2023-02-18T17:33:01;7.77;;;3.87;;
21798;SDS011;24973;47.178;15.316;2023-02-18T17:35:51;5.10;;;3.80;;